sensor_id;sensor_type;location;lat;lon;timestamp;P1;durP1;ratioP1;P2;durP2;ratioP2
24389;SDS011;12510;56.468;-3.004;2023-05-07T00:01:08;2.08;;;1.98;;
24389;SDS011;12510;56.468;-3.004;2023-05-07T00:03:35;2.20;;;1.35;;
24389;SDS011;12510;56.468;-3.004;2023-05-07T00:06:02;1.80;;;1.70;;
24389;SDS011;12510;56.468;-3.004;2023-05-07T00:08:29;3.22;;;1.90;;
24389;SDS011;12510;56.468;-3.004;2023-05-07T00:10:55;2.47;;;2.28;;
24389;SDS011;12510;56.468;-3.004;2023-05-07T00:13:22;2.78;;;2.60;;
24389;SDS011;12510;56.468;-3.004;2023-05-07T00:15:48;2.30;;;2.20;;
24389;SDS011;12510;56.468;-3.004;2023-05-07T00:18:15;2.55;;;2.35;;
24389;SDS011;12510;56.468;-3.004;2023-05-07T00:20:41;2.22;;;2.00;;
24389;SDS011;12510;56.468;-3.004;2023-05-07T00:23:08;1.98;;;1.88;;
24389;SDS011;12510;56.468;-3.004;2023-05-07T00:25:35;1.88;;;1.77;;
24389;SDS011;12510;56.468;-3.004;2023-05-07T00:28:01;2.00;;;1.90;;
24389;SDS011;12510;56.468;-3.004;2023-05-07T00:30:29;2.42;;;2.25;;
24389;SDS011;12510;56.468;-3.004;2023-05-07T00:32:56;2.30;;;1.83;;
24389;SDS011;12510;56.468;-3.004;2023-05-07T00:35:22;2.00;;;1.90;;
24389;SDS011;12510;56.468;-3.004;2023-05-07T00:37:49;2.05;;;1.95;;
24389;SDS011;12510;56.468;-3.004;2023-05-07T00:40:15;2.47;;;2.28;;
24389;SDS011;12510;56.468;-3.004;2023-05-07T00:42:42;2.30;;;2.20;;
24389;SDS011;12510;56.468;-3.004;2023-05-07T00:45:28;2.28;;;2.17;;
24389;SDS011;12510;56.468;-3.004;2023-05-07T00:47:56;2.38;;;2.28;;
24389;SDS011;12510;56.468;-3.004;2023-05-07T00:50:25;5.90;;;3.28;;
24389;SDS011;12510;56.468;-3.004;2023-05-07T00:52:52;3.50;;;2.70;;
24389;SDS011;12510;56.468;-3.004;2023-05-07T00:55:20;6.93;;;2.67;;
24389;SDS011;12510;56.468;-3.004;2023-05-07T00:57:47;16.42;;;4.18;;
24389;SDS011;12510;56.468;-3.004;2023-05-07T01:00:16;4.30;;;3.20;;
24389;SDS011;12510;56.468;-3.004;2023-05-07T01:02:43;8.55;;;4.07;;
24389;SDS011;12510;56.468;-3.004;2023-05-07T01:05:11;7.30;;;4.40;;
24389;SDS011;12510;56.468;-3.004;2023-05-07T01:07:40;7.55;;;4.30;;
24389;SDS011;12510;56.468;-3.004;2023-05-07T01:10:08;9.30;;;4.88;;
24389;SDS011;12510;56.468;-3.004;2023-05-07T01:12:35;10.65;;;4.60;;
24389;SDS011;12510;56.468;-3.004;2023-05-07T01:15:03;8.43;;;4.30;;
24389;SDS011;12510;56.468;-3.004;2023-05-07T01:17:36;8.30;;;4.07;;
24389;SDS011;12510;56.468;-3.004;2023-05-07T01:20:06;5.55;;;4.38;;
24389;SDS011;12510;56.468;-3.004;2023-05-07T01:22:34;13.25;;;5.00;;
24389;SDS011;12510;56.468;-3.004;2023-05-07T01:25:03;12.80;;;5.20;;
24389;SDS011;12510;56.468;-3.004;2023-05-07T01:27:32;9.27;;;4.53;;
24389;SDS011;12510;56.468;-3.004;2023-05-07T01:29:59;8.25;;;3.97;;
24389;SDS011;12510;56.468;-3.004;2023-05-07T01:32:33;7.40;;;3.88;;
24389;SDS011;12510;56.468;-3.004;2023-05-07T01:35:13;8.88;;;3.78;;
24389;SDS011;12510;56.468;-3.004;2023-05-07T01:37:44;5.32;;;3.13;;
24389;SDS011;12510;56.468;-3.004;2023-05-07T01:40:12;8.00;;;3.70;;
24389;SDS011;12510;56.468;-3.004;2023-05-07T01:42:39;5.95;;;3.28;;
24389;SDS011;12510;56.468;-3.004;2023-05-07T01:45:09;6.73;;;3.50;;
24389;SDS011;12510;56.468;-3.004;2023-05-07T01:47:36;10.75;;;3.30;;
24389;SDS011;12510;56.468;-3.004;2023-05-07T01:50:06;11.32;;;4.65;;
24389;SDS011;12510;56.468;-3.004;2023-05-07T01:52:34;10.77;;;4.38;;
24389;SDS011;12510;56.468;-3.004;2023-05-07T01:55:01;6.80;;;3.50;;
24389;SDS011;12510;56.468;-3.004;2023-05-07T01:57:27;11.80;;;4.68;;
24389;SDS011;12510;56.468;-3.004;2023-05-07T01:59:54;8.20;;;4.30;;
24389;SDS011;12510;56.468;-3.004;2023-05-07T02:02:20;15.38;;;4.70;;
24389;SDS011;12510;56.468;-3.004;2023-05-07T02:04:47;13.30;;;4.72;;
24389;SDS011;12510;56.468;-3.004;2023-05-07T02:07:15;11.05;;;4.68;;
24389;SDS011;12510;56.468;-3.004;2023-05-07T02:09:41;15.32;;;4.32;;
24389;SDS011;12510;56.468;-3.004;2023-05-07T02:12:08;12.93;;;5.07;;
24389;SDS011;12510;56.468;-3.004;2023-05-07T02:14:35;12.63;;;4.55;;
24389;SDS011;12510;56.468;-3.004;2023-05-07T02:17:01;17.30;;;4.57;;
24389;SDS011;12510;56.468;-3.004;2023-05-07T02:19:28;13.10;;;4.78;;
24389;SDS011;12510;56.468;-3.004;2023-05-07T02:21:55;24.58;;;5.63;;
24389;SDS011;12510;56.468;-3.004;2023-05-07T02:24:21;15.00;;;4.10;;
24389;SDS011;12510;56.468;-3.004;2023-05-07T02:26:48;13.45;;;4.32;;
24389;SDS011;12510;56.468;-3.004;2023-05-07T02:29:14;21.92;;;5.55;;
24389;SDS011;12510;56.468;-3.004;2023-05-07T02:31:41;12.75;;;4.40;;
24389;SDS011;12510;56.468;-3.004;2023-05-07T02:34:07;18.60;;;4.80;;
24389;SDS011;12510;56.468;-3.004;2023-05-07T02:36:33;15.98;;;4.55;;
24389;SDS011;12510;56.468;-3.004;2023-05-07T02:39:06;20.13;;;5.15;;
24389;SDS011;12510;56.468;-3.004;2023-05-07T02:41:32;29.33;;;6.72;;
24389;SDS011;12510;56.468;-3.004;2023-05-07T02:43:58;17.98;;;5.05;;
24389;SDS011;12510;56.468;-3.004;2023-05-07T02:46:26;23.38;;;5.55;;
24389;SDS011;12510;56.468;-3.004;2023-05-07T02:48:59;19.92;;;5.75;;
24389;SDS011;12510;56.468;-3.004;2023-05-07T02:51:26;35.70;;;7.05;;
24389;SDS011;12510;56.468;-3.004;2023-05-07T02:53:55;38.83;;;7.82;;
24389;SDS011;12510;56.468;-3.004;2023-05-07T02:56:22;35.97;;;7.85;;
24389;SDS011;12510;56.468;-3.004;2023-05-07T02:58:48;33.90;;;7.35;;
24389;SDS011;12510;56.468;-3.004;2023-05-07T03:01:16;38.28;;;7.32;;
24389;SDS011;12510;56.468;-3.004;2023-05-07T03:03:51;43.88;;;6.65;;
24389;SDS011;12510;56.468;-3.004;2023-05-07T03:06:18;29.95;;;7.43;;
24389;SDS011;12510;56.468;-3.004;2023-05-07T03:08:44;43.55;;;9.00;;
24389;SDS011;12510;56.468;-3.004;2023-05-07T03:11:11;53.00;;;9.70;;
24389;SDS011;12510;56.468;-3.004;2023-05-07T03:13:37;38.90;;;7.05;;
24389;SDS011;12510;56.468;-3.004;2023-05-07T03:16:04;41.28;;;8.63;;
24389;SDS011;12510;56.468;-3.004;2023-05-07T03:18:31;72.03;;;11.73;;
24389;SDS011;12510;56.468;-3.004;2023-05-07T03:20:57;44.60;;;9.18;;
24389;SDS011;12510;56.468;-3.004;2023-05-07T03:23:24;29.95;;;7.70;;
24389;SDS011;12510;56.468;-3.004;2023-05-07T03:25:50;83.88;;;13.88;;
24389;SDS011;12510;56.468;-3.004;2023-05-07T03:28:17;39.47;;;8.27;;
24389;SDS011;12510;56.468;-3.004;2023-05-07T03:30:49;28.77;;;6.53;;
24389;SDS011;12510;56.468;-3.004;2023-05-07T03:33:16;30.25;;;6.53;;
24389;SDS011;12510;56.468;-3.004;2023-05-07T03:35:43;36.13;;;9.40;;
24389;SDS011;12510;56.468;-3.004;2023-05-07T03:38:11;35.05;;;7.30;;
24389;SDS011;12510;56.468;-3.004;2023-05-07T03:40:38;59.22;;;10.13;;
24389;SDS011;12510;56.468;-3.004;2023-05-07T03:43:05;53.08;;;7.78;;
24389;SDS011;12510;56.468;-3.004;2023-05-07T03:45:34;66.45;;;10.20;;
24389;SDS011;12510;56.468;-3.004;2023-05-07T03:48:12;59.08;;;9.80;;
24389;SDS011;12510;56.468;-3.004;2023-05-07T03:50:38;79.50;;;11.70;;
24389;SDS011;12510;56.468;-3.004;2023-05-07T03:53:05;42.50;;;8.38;;
24389;SDS011;12510;56.468;-3.004;2023-05-07T03:55:36;31.83;;;7.38;;
24389;SDS011;12510;56.468;-3.004;2023-05-07T03:58:02;47.67;;;9.48;;
24389;SDS011;12510;56.468;-3.004;2023-05-07T04:00:29;57.58;;;9.90;;
24389;SDS011;12510;56.468;-3.004;2023-05-07T04:02:59;49.85;;;8.68;;
24389;SDS011;12510;56.468;-3.004;2023-05-07T04:05:29;56.60;;;9.05;;
24389;SDS011;12510;56.468;-3.004;2023-05-07T04:08:00;52.90;;;8.80;;
24389;SDS011;12510;56.468;-3.004;2023-05-07T04:10:35;58.33;;;11.57;;
24389;SDS011;12510;56.468;-3.004;2023-05-07T04:13:06;52.35;;;9.27;;
24389;SDS011;12510;56.468;-3.004;2023-05-07T04:15:35;44.90;;;8.95;;
24389;SDS011;12510;56.468;-3.004;2023-05-07T04:18:02;46.17;;;7.90;;
24389;SDS011;12510;56.468;-3.004;2023-05-07T04:20:29;63.53;;;11.13;;
24389;SDS011;12510;56.468;-3.004;2023-05-07T04:23:00;50.67;;;10.13;;
24389;SDS011;12510;56.468;-3.004;2023-05-07T04:25:27;46.88;;;9.18;;
24389;SDS011;12510;56.468;-3.004;2023-05-07T04:28:01;49.60;;;10.40;;
24389;SDS011;12510;56.468;-3.004;2023-05-07T04:30:29;93.90;;;14.90;;
24389;SDS011;12510;56.468;-3.004;2023-05-07T04:32:56;53.28;;;10.70;;
24389;SDS011;12510;56.468;-3.004;2023-05-07T04:35:24;46.53;;;9.80;;
24389;SDS011;12510;56.468;-3.004;2023-05-07T04:37:51;78.68;;;13.60;;
24389;SDS011;12510;56.468;-3.004;2023-05-07T04:40:18;61.80;;;11.38;;
24389;SDS011;12510;56.468;-3.004;2023-05-07T04:42:44;76.32;;;14.05;;
24389;SDS011;12510;56.468;-3.004;2023-05-07T04:45:11;35.10;;;8.95;;
24389;SDS011;12510;56.468;-3.004;2023-05-07T04:47:40;82.57;;;14.60;;
24389;SDS011;12510;56.468;-3.004;2023-05-07T04:50:08;59.65;;;11.43;;
24389;SDS011;12510;56.468;-3.004;2023-05-07T04:52:35;36.17;;;8.00;;
24389;SDS011;12510;56.468;-3.004;2023-05-07T04:55:02;52.75;;;9.07;;
24389;SDS011;12510;56.468;-3.004;2023-05-07T04:57:34;37.38;;;9.88;;
24389;SDS011;12510;56.468;-3.004;2023-05-07T05:00:00;41.55;;;8.85;;
24389;SDS011;12510;56.468;-3.004;2023-05-07T05:02:28;44.20;;;8.07;;
24389;SDS011;12510;56.468;-3.004;2023-05-07T05:04:54;55.55;;;10.77;;
24389;SDS011;12510;56.468;-3.004;2023-05-07T05:07:22;56.25;;;10.10;;
24389;SDS011;12510;56.468;-3.004;2023-05-07T05:09:48;40.15;;;7.80;;
24389;SDS011;12510;56.468;-3.004;2023-05-07T05:12:15;37.70;;;6.95;;
24389;SDS011;12510;56.468;-3.004;2023-05-07T05:14:41;36.70;;;7.60;;
24389;SDS011;12510;56.468;-3.004;2023-05-07T05:17:09;38.25;;;7.50;;
24389;SDS011;12510;56.468;-3.004;2023-05-07T05:19:36;36.03;;;7.15;;
24389;SDS011;12510;56.468;-3.004;2023-05-07T05:22:02;24.17;;;6.85;;
24389;SDS011;12510;56.468;-3.004;2023-05-07T05:24:30;26.50;;;7.25;;
24389;SDS011;12510;56.468;-3.004;2023-05-07T05:26:57;20.27;;;5.85;;
24389;SDS011;12510;56.468;-3.004;2023-05-07T05:29:28;67.43;;;10.60;;
24389;SDS011;12510;56.468;-3.004;2023-05-07T05:31:57;48.67;;;9.65;;
24389;SDS011;12510;56.468;-3.004;2023-05-07T05:34:25;43.25;;;8.80;;
24389;SDS011;12510;56.468;-3.004;2023-05-07T05:36:52;33.75;;;7.32;;
24389;SDS011;12510;56.468;-3.004;2023-05-07T05:39:19;74.03;;;12.23;;
24389;SDS011;12510;56.468;-3.004;2023-05-07T05:41:45;51.03;;;9.48;;
24389;SDS011;12510;56.468;-3.004;2023-05-07T05:44:13;38.25;;;8.20;;
24389;SDS011;12510;56.468;-3.004;2023-05-07T05:46:41;55.20;;;10.32;;
24389;SDS011;12510;56.468;-3.004;2023-05-07T05:49:08;45.50;;;9.52;;
24389;SDS011;12510;56.468;-3.004;2023-05-07T05:51:34;33.10;;;7.30;;
24389;SDS011;12510;56.468;-3.004;2023-05-07T05:54:01;36.17;;;7.78;;
24389;SDS011;12510;56.468;-3.004;2023-05-07T05:56:28;42.40;;;8.43;;
24389;SDS011;12510;56.468;-3.004;2023-05-07T05:58:54;22.67;;;6.80;;
24389;SDS011;12510;56.468;-3.004;2023-05-07T06:01:21;36.08;;;8.05;;
24389;SDS011;12510;56.468;-3.004;2023-05-07T06:03:49;17.55;;;5.95;;
24389;SDS011;12510;56.468;-3.004;2023-05-07T06:06:16;21.75;;;6.45;;
24389;SDS011;12510;56.468;-3.004;2023-05-07T06:08:44;21.38;;;6.32;;
24389;SDS011;12510;56.468;-3.004;2023-05-07T06:11:13;28.63;;;7.18;;
24389;SDS011;12510;56.468;-3.004;2023-05-07T06:13:41;28.25;;;6.95;;
24389;SDS011;12510;56.468;-3.004;2023-05-07T06:16:08;25.05;;;7.13;;
24389;SDS011;12510;56.468;-3.004;2023-05-07T06:18:34;19.50;;;6.32;;
24389;SDS011;12510;56.468;-3.004;2023-05-07T06:21:02;15.75;;;5.72;;
24389;SDS011;12510;56.468;-3.004;2023-05-07T06:23:32;14.30;;;5.90;;
24389;SDS011;12510;56.468;-3.004;2023-05-07T06:26:00;7.60;;;5.35;;
24389;SDS011;12510;56.468;-3.004;2023-05-07T06:28:32;14.50;;;5.38;;
24389;SDS011;12510;56.468;-3.004;2023-05-07T06:31:16;11.48;;;5.28;;
24389;SDS011;12510;56.468;-3.004;2023-05-07T06:33:58;11.82;;;5.45;;
24389;SDS011;12510;56.468;-3.004;2023-05-07T06:36:31;9.35;;;5.88;;
24389;SDS011;12510;56.468;-3.004;2023-05-07T06:39:00;11.67;;;5.63;;
24389;SDS011;12510;56.468;-3.004;2023-05-07T06:41:27;8.23;;;5.05;;
24389;SDS011;12510;56.468;-3.004;2023-05-07T06:43:56;9.77;;;4.57;;
24389;SDS011;12510;56.468;-3.004;2023-05-07T06:46:28;6.70;;;4.50;;
24389;SDS011;12510;56.468;-3.004;2023-05-07T06:48:55;6.43;;;4.93;;
24389;SDS011;12510;56.468;-3.004;2023-05-07T06:51:23;9.07;;;4.65;;
24389;SDS011;12510;56.468;-3.004;2023-05-07T06:53:49;8.55;;;4.25;;
24389;SDS011;12510;56.468;-3.004;2023-05-07T06:56:16;7.82;;;4.50;;
24389;SDS011;12510;56.468;-3.004;2023-05-07T06:58:43;5.90;;;4.20;;
24389;SDS011;12510;56.468;-3.004;2023-05-07T07:01:10;9.05;;;5.13;;
24389;SDS011;12510;56.468;-3.004;2023-05-07T07:03:37;7.60;;;4.82;;
24389;SDS011;12510;56.468;-3.004;2023-05-07T07:06:04;9.80;;;4.95;;
24389;SDS011;12510;56.468;-3.004;2023-05-07T07:08:31;6.60;;;4.70;;
24389;SDS011;12510;56.468;-3.004;2023-05-07T07:10:58;7.68;;;4.95;;
24389;SDS011;12510;56.468;-3.004;2023-05-07T07:13:25;7.22;;;4.65;;
24389;SDS011;12510;56.468;-3.004;2023-05-07T07:15:52;8.15;;;4.80;;
24389;SDS011;12510;56.468;-3.004;2023-05-07T07:18:19;6.90;;;4.68;;
24389;SDS011;12510;56.468;-3.004;2023-05-07T07:20:48;6.75;;;4.97;;
24389;SDS011;12510;56.468;-3.004;2023-05-07T07:23:14;8.48;;;5.20;;
24389;SDS011;12510;56.468;-3.004;2023-05-07T07:25:41;8.02;;;4.70;;
24389;SDS011;12510;56.468;-3.004;2023-05-07T07:28:08;4.53;;;3.92;;
24389;SDS011;12510;56.468;-3.004;2023-05-07T07:30:37;4.38;;;3.65;;
24389;SDS011;12510;56.468;-3.004;2023-05-07T07:33:04;4.32;;;3.90;;
24389;SDS011;12510;56.468;-3.004;2023-05-07T07:35:34;4.10;;;3.70;;
24389;SDS011;12510;56.468;-3.004;2023-05-07T07:38:02;4.97;;;3.80;;
24389;SDS011;12510;56.468;-3.004;2023-05-07T07:40:29;4.97;;;4.10;;
24389;SDS011;12510;56.468;-3.004;2023-05-07T07:42:56;5.65;;;3.88;;
24389;SDS011;12510;56.468;-3.004;2023-05-07T07:45:23;4.93;;;4.13;;
24389;SDS011;12510;56.468;-3.004;2023-05-07T07:47:50;4.05;;;3.65;;
24389;SDS011;12510;56.468;-3.004;2023-05-07T07:50:17;6.28;;;4.22;;
24389;SDS011;12510;56.468;-3.004;2023-05-07T07:52:44;5.97;;;4.10;;
24389;SDS011;12510;56.468;-3.004;2023-05-07T07:55:13;5.80;;;4.10;;
24389;SDS011;12510;56.468;-3.004;2023-05-07T07:57:44;5.03;;;3.80;;
24389;SDS011;12510;56.468;-3.004;2023-05-07T08:00:11;4.25;;;3.85;;
24389;SDS011;12510;56.468;-3.004;2023-05-07T08:02:43;5.50;;;3.70;;
24389;SDS011;12510;56.468;-3.004;2023-05-07T08:05:18;4.88;;;4.30;;
24389;SDS011;12510;56.468;-3.004;2023-05-07T08:07:44;5.15;;;3.67;;
24389;SDS011;12510;56.468;-3.004;2023-05-07T08:10:13;4.75;;;4.05;;
24389;SDS011;12510;56.468;-3.004;2023-05-07T08:12:50;4.25;;;3.45;;
24389;SDS011;12510;56.468;-3.004;2023-05-07T08:15:17;3.65;;;3.10;;
24389;SDS011;12510;56.468;-3.004;2023-05-07T08:17:44;4.55;;;3.65;;
24389;SDS011;12510;56.468;-3.004;2023-05-07T08:20:11;4.72;;;3.88;;
24389;SDS011;12510;56.468;-3.004;2023-05-07T08:22:38;6.32;;;3.88;;
24389;SDS011;12510;56.468;-3.004;2023-05-07T08:25:06;6.38;;;4.35;;
24389;SDS011;12510;56.468;-3.004;2023-05-07T08:27:33;4.95;;;3.97;;
24389;SDS011;12510;56.468;-3.004;2023-05-07T08:30:00;4.00;;;3.58;;
24389;SDS011;12510;56.468;-3.004;2023-05-07T08:32:26;5.43;;;3.50;;
24389;SDS011;12510;56.468;-3.004;2023-05-07T08:34:53;3.97;;;3.58;;
24389;SDS011;12510;56.468;-3.004;2023-05-07T08:37:21;5.30;;;4.00;;
24389;SDS011;12510;56.468;-3.004;2023-05-07T08:39:47;4.97;;;3.90;;
24389;SDS011;12510;56.468;-3.004;2023-05-07T08:42:19;4.95;;;3.75;;
24389;SDS011;12510;56.468;-3.004;2023-05-07T08:44:49;5.13;;;4.07;;
24389;SDS011;12510;56.468;-3.004;2023-05-07T08:47:19;4.60;;;3.95;;
24389;SDS011;12510;56.468;-3.004;2023-05-07T08:49:51;4.68;;;3.80;;
24389;SDS011;12510;56.468;-3.004;2023-05-07T08:52:18;4.93;;;4.05;;
24389;SDS011;12510;56.468;-3.004;2023-05-07T08:54:46;4.97;;;3.97;;
24389;SDS011;12510;56.468;-3.004;2023-05-07T08:57:13;5.82;;;4.35;;
24389;SDS011;12510;56.468;-3.004;2023-05-07T08:59:40;5.32;;;4.63;;
24389;SDS011;12510;56.468;-3.004;2023-05-07T09:02:08;9.80;;;6.38;;
24389;SDS011;12510;56.468;-3.004;2023-05-07T09:04:38;7.60;;;6.03;;
24389;SDS011;12510;56.468;-3.004;2023-05-07T09:07:04;6.43;;;5.75;;
24389;SDS011;12510;56.468;-3.004;2023-05-07T09:12:02;12.23;;;6.47;;
24389;SDS011;12510;56.468;-3.004;2023-05-07T09:14:33;11.68;;;6.38;;
24389;SDS011;12510;56.468;-3.004;2023-05-07T09:17:00;8.10;;;6.13;;
24389;SDS011;12510;56.468;-3.004;2023-05-07T09:19:27;9.75;;;6.00;;
24389;SDS011;12510;56.468;-3.004;2023-05-07T09:21:59;6.70;;;6.10;;
24389;SDS011;12510;56.468;-3.004;2023-05-07T09:24:37;8.75;;;6.05;;
24389;SDS011;12510;56.468;-3.004;2023-05-07T09:27:06;9.88;;;5.88;;
24389;SDS011;12510;56.468;-3.004;2023-05-07T09:29:36;7.07;;;5.95;;
24389;SDS011;12510;56.468;-3.004;2023-05-07T09:32:05;8.18;;;6.60;;
24389;SDS011;12510;56.468;-3.004;2023-05-07T09:34:33;12.55;;;7.45;;
24389;SDS011;12510;56.468;-3.004;2023-05-07T09:37:04;22.45;;;9.45;;
24389;SDS011;12510;56.468;-3.004;2023-05-07T09:39:38;11.82;;;8.48;;
24389;SDS011;12510;56.468;-3.004;2023-05-07T09:42:07;13.63;;;9.40;;
24389;SDS011;12510;56.468;-3.004;2023-05-07T09:44:35;19.42;;;9.25;;
24389;SDS011;12510;56.468;-3.004;2023-05-07T09:47:04;31.23;;;10.43;;
24389;SDS011;12510;56.468;-3.004;2023-05-07T09:49:39;17.70;;;9.15;;
24389;SDS011;12510;56.468;-3.004;2023-05-07T09:52:11;14.02;;;7.35;;
24389;SDS011;12510;56.468;-3.004;2023-05-07T09:54:45;10.35;;;7.97;;
24389;SDS011;12510;56.468;-3.004;2023-05-07T09:57:16;24.27;;;8.32;;
24389;SDS011;12510;56.468;-3.004;2023-05-07T09:59:48;11.43;;;8.50;;
24389;SDS011;12510;56.468;-3.004;2023-05-07T10:04:48;16.33;;;8.27;;
24389;SDS011;12510;56.468;-3.004;2023-05-07T10:07:19;23.90;;;8.38;;
24389;SDS011;12510;56.468;-3.004;2023-05-07T10:09:48;18.45;;;7.90;;
24389;SDS011;12510;56.468;-3.004;2023-05-07T10:12:26;30.63;;;9.15;;
24389;SDS011;12510;56.468;-3.004;2023-05-07T10:14:54;19.20;;;8.07;;
24389;SDS011;12510;56.468;-3.004;2023-05-07T10:17:22;16.65;;;9.00;;
24389;SDS011;12510;56.468;-3.004;2023-05-07T10:19:49;20.77;;;9.35;;
24389;SDS011;12510;56.468;-3.004;2023-05-07T10:22:19;28.00;;;10.43;;
24389;SDS011;12510;56.468;-3.004;2023-05-07T10:24:48;44.95;;;10.63;;
24389;SDS011;12510;56.468;-3.004;2023-05-07T10:27:19;18.60;;;8.98;;
24389;SDS011;12510;56.468;-3.004;2023-05-07T10:32:35;18.10;;;10.52;;
24389;SDS011;12510;56.468;-3.004;2023-05-07T10:35:19;41.10;;;12.38;;
24389;SDS011;12510;56.468;-3.004;2023-05-07T10:37:49;19.42;;;10.02;;
24389;SDS011;12510;56.468;-3.004;2023-05-07T10:40:17;16.25;;;8.40;;
24389;SDS011;12510;56.468;-3.004;2023-05-07T10:45:32;15.30;;;9.20;;
24389;SDS011;12510;56.468;-3.004;2023-05-07T10:48:07;15.75;;;9.10;;
24389;SDS011;12510;56.468;-3.004;2023-05-07T10:50:37;15.52;;;9.10;;
24389;SDS011;12510;56.468;-3.004;2023-05-07T10:58:48;12.02;;;8.65;;
24389;SDS011;12510;56.468;-3.004;2023-05-07T11:02:06;7.57;;;6.00;;
24389;SDS011;12510;56.468;-3.004;2023-05-07T11:04:27;10.50;;;8.32;;
24389;SDS011;12510;56.468;-3.004;2023-05-07T11:07:14;49.25;;;12.52;;
24389;SDS011;12510;56.468;-3.004;2023-05-07T11:09:55;42.75;;;12.32;;
24389;SDS011;12510;56.468;-3.004;2023-05-07T11:12:50;64.43;;;12.23;;
24389;SDS011;12510;56.468;-3.004;2023-05-07T11:15:35;46.78;;;12.18;;
24389;SDS011;12510;56.468;-3.004;2023-05-07T11:18:08;47.70;;;11.63;;
24389;SDS011;12510;56.468;-3.004;2023-05-07T11:26:06;40.72;;;10.80;;
24389;SDS011;12510;56.468;-3.004;2023-05-07T11:28:37;43.00;;;12.23;;
24389;SDS011;12510;56.468;-3.004;2023-05-07T11:31:04;25.90;;;10.43;;
24389;SDS011;12510;56.468;-3.004;2023-05-07T11:33:32;19.63;;;9.00;;
24389;SDS011;12510;56.468;-3.004;2023-05-07T11:36:04;47.53;;;12.82;;
24389;SDS011;12510;56.468;-3.004;2023-05-07T11:38:37;60.50;;;12.30;;
24389;SDS011;12510;56.468;-3.004;2023-05-07T11:41:04;25.15;;;10.65;;
24389;SDS011;12510;56.468;-3.004;2023-05-07T11:43:31;48.50;;;12.32;;
24389;SDS011;12510;56.468;-3.004;2023-05-07T11:46:11;44.10;;;13.73;;
24389;SDS011;12510;56.468;-3.004;2023-05-07T11:48:40;22.40;;;9.65;;
24389;SDS011;12510;56.468;-3.004;2023-05-07T11:51:07;19.60;;;10.20;;
24389;SDS011;12510;56.468;-3.004;2023-05-07T11:53:41;33.08;;;11.00;;
24389;SDS011;12510;56.468;-3.004;2023-05-07T11:56:09;31.13;;;11.95;;
24389;SDS011;12510;56.468;-3.004;2023-05-07T11:58:37;20.95;;;11.77;;
24389;SDS011;12510;56.468;-3.004;2023-05-07T12:01:04;16.23;;;9.52;;
24389;SDS011;12510;56.468;-3.004;2023-05-07T12:03:33;20.33;;;9.40;;
24389;SDS011;12510;56.468;-3.004;2023-05-07T12:05:59;13.35;;;8.10;;
24389;SDS011;12510;56.468;-3.004;2023-05-07T12:08:26;11.73;;;8.38;;
24389;SDS011;12510;56.468;-3.004;2023-05-07T12:10:53;10.18;;;8.32;;
24389;SDS011;12510;56.468;-3.004;2023-05-07T12:13:21;10.98;;;8.50;;
24389;SDS011;12510;56.468;-3.004;2023-05-07T12:15:52;12.05;;;8.55;;
24389;SDS011;12510;56.468;-3.004;2023-05-07T12:18:19;10.18;;;8.63;;
24389;SDS011;12510;56.468;-3.004;2023-05-07T12:20:46;11.32;;;9.50;;
24389;SDS011;12510;56.468;-3.004;2023-05-07T12:23:13;9.73;;;7.65;;
24389;SDS011;12510;56.468;-3.004;2023-05-07T12:25:41;10.73;;;8.52;;
24389;SDS011;12510;56.468;-3.004;2023-05-07T12:28:15;13.70;;;9.23;;
24389;SDS011;12510;56.468;-3.004;2023-05-07T12:30:43;12.85;;;10.05;;
24389;SDS011;12510;56.468;-3.004;2023-05-07T12:33:10;13.85;;;9.65;;
24389;SDS011;12510;56.468;-3.004;2023-05-07T12:35:38;15.23;;;10.88;;
24389;SDS011;12510;56.468;-3.004;2023-05-07T12:38:13;10.32;;;8.55;;
24389;SDS011;12510;56.468;-3.004;2023-05-07T12:40:42;17.02;;;10.85;;
24389;SDS011;12510;56.468;-3.004;2023-05-07T12:43:21;18.13;;;11.00;;
24389;SDS011;12510;56.468;-3.004;2023-05-07T12:45:50;17.25;;;11.18;;
24389;SDS011;12510;56.468;-3.004;2023-05-07T12:48:19;15.27;;;10.02;;
24389;SDS011;12510;56.468;-3.004;2023-05-07T12:50:49;20.80;;;13.02;;
24389;SDS011;12510;56.468;-3.004;2023-05-07T12:53:19;16.88;;;10.82;;
24389;SDS011;12510;56.468;-3.004;2023-05-07T12:55:48;15.35;;;10.77;;
24389;SDS011;12510;56.468;-3.004;2023-05-07T13:00:56;14.45;;;10.20;;
24389;SDS011;12510;56.468;-3.004;2023-05-07T13:03:26;16.90;;;10.13;;
24389;SDS011;12510;56.468;-3.004;2023-05-07T13:06:03;13.20;;;9.23;;
24389;SDS011;12510;56.468;-3.004;2023-05-07T13:08:32;12.80;;;9.85;;
24389;SDS011;12510;56.468;-3.004;2023-05-07T13:11:00;12.03;;;8.93;;
24389;SDS011;12510;56.468;-3.004;2023-05-07T13:13:30;10.50;;;9.07;;
24389;SDS011;12510;56.468;-3.004;2023-05-07T13:15:57;8.80;;;7.75;;
24389;SDS011;12510;56.468;-3.004;2023-05-07T13:18:26;9.45;;;8.07;;
24389;SDS011;12510;56.468;-3.004;2023-05-07T13:23:19;8.52;;;7.72;;
24389;SDS011;12510;56.468;-3.004;2023-05-07T13:25:46;9.35;;;8.25;;
24389;SDS011;12510;56.468;-3.004;2023-05-07T13:28:15;9.80;;;8.10;;
24389;SDS011;12510;56.468;-3.004;2023-05-07T13:30:41;9.88;;;8.32;;
24389;SDS011;12510;56.468;-3.004;2023-05-07T13:33:08;10.65;;;8.90;;
24389;SDS011;12510;56.468;-3.004;2023-05-07T13:35:35;11.23;;;9.18;;
24389;SDS011;12510;56.468;-3.004;2023-05-07T13:38:02;9.57;;;8.57;;
24389;SDS011;12510;56.468;-3.004;2023-05-07T13:40:28;9.32;;;8.43;;
24389;SDS011;12510;56.468;-3.004;2023-05-07T13:42:56;9.57;;;8.57;;
24389;SDS011;12510;56.468;-3.004;2023-05-07T13:45:24;8.95;;;7.93;;
24389;SDS011;12510;56.468;-3.004;2023-05-07T13:47:55;11.95;;;9.55;;
24389;SDS011;12510;56.468;-3.004;2023-05-07T13:50:23;7.95;;;7.22;;
24389;SDS011;12510;56.468;-3.004;2023-05-07T13:52:49;10.55;;;8.60;;
24389;SDS011;12510;56.468;-3.004;2023-05-07T13:55:19;8.18;;;7.45;;
24389;SDS011;12510;56.468;-3.004;2023-05-07T13:57:47;7.63;;;6.93;;
24389;SDS011;12510;56.468;-3.004;2023-05-07T14:00:13;6.95;;;6.35;;
24389;SDS011;12510;56.468;-3.004;2023-05-07T14:02:41;7.15;;;6.45;;
24389;SDS011;12510;56.468;-3.004;2023-05-07T14:05:07;6.70;;;6.13;;
24389;SDS011;12510;56.468;-3.004;2023-05-07T14:07:35;9.65;;;8.65;;
24389;SDS011;12510;56.468;-3.004;2023-05-07T14:10:02;9.40;;;8.50;;
24389;SDS011;12510;56.468;-3.004;2023-05-07T14:12:31;10.20;;;9.15;;
24389;SDS011;12510;56.468;-3.004;2023-05-07T14:14:58;9.93;;;8.77;;
24389;SDS011;12510;56.468;-3.004;2023-05-07T14:17:25;9.80;;;8.80;;
24389;SDS011;12510;56.468;-3.004;2023-05-07T14:19:53;12.75;;;9.77;;
24389;SDS011;12510;56.468;-3.004;2023-05-07T14:22:21;11.80;;;9.65;;
24389;SDS011;12510;56.468;-3.004;2023-05-07T14:24:48;11.23;;;9.98;;
24389;SDS011;12510;56.468;-3.004;2023-05-07T14:27:16;11.32;;;9.30;;
24389;SDS011;12510;56.468;-3.004;2023-05-07T14:29:42;13.05;;;10.60;;
24389;SDS011;12510;56.468;-3.004;2023-05-07T14:32:09;11.50;;;9.65;;
24389;SDS011;12510;56.468;-3.004;2023-05-07T14:34:35;13.15;;;10.30;;
24389;SDS011;12510;56.468;-3.004;2023-05-07T14:37:01;10.48;;;9.35;;
24389;SDS011;12510;56.468;-3.004;2023-05-07T14:39:29;10.45;;;8.77;;
24389;SDS011;12510;56.468;-3.004;2023-05-07T14:41:56;12.82;;;10.38;;
24389;SDS011;12510;56.468;-3.004;2023-05-07T14:44:23;11.55;;;10.07;;
24389;SDS011;12510;56.468;-3.004;2023-05-07T14:46:50;14.45;;;10.30;;
24389;SDS011;12510;56.468;-3.004;2023-05-07T14:49:16;15.57;;;10.80;;
24389;SDS011;12510;56.468;-3.004;2023-05-07T14:51:44;14.13;;;11.00;;
24389;SDS011;12510;56.468;-3.004;2023-05-07T14:54:11;12.82;;;9.73;;
24389;SDS011;12510;56.468;-3.004;2023-05-07T14:56:38;14.18;;;10.55;;
24389;SDS011;12510;56.468;-3.004;2023-05-07T14:59:06;14.07;;;9.40;;